Time;durP1;ratioP1;P1;durP2;ratioP2;P2;SDS_P1;SDS_P2;PMS_P1;PMS_P2;Temp;Humidity;BMP_temperature;BMP_pressure;BME280_temperature;BME280_humidity;BME280_pressure;Samples;Min_cycle;Max_cycle;Signal;HPM_P1;HPM_P2
2022/03/20 00:00:06;;;;;;;43.70;26.20;;;10.70;37.80;;;;;;4955918;29;20034;-75
2022/03/20 00:02:33;;;;;;;40.97;23.73;;;10.70;37.90;;;;;;4965725;28;20023;-75
2022/03/20 00:05:02;;;;;;;38.95;24.15;;;10.70;37.70;;;;;;4959107;28;20114;-75
2022/03/20 00:07:33;;;;;;;43.50;24.70;;;10.70;37.70;;;;;;4970214;28;20389;-75
2022/03/20 00:10:00;;;;;;;40.08;25.08;;;10.60;37.60;;;;;;4954610;28;20032;-75
2022/03/20 00:12:26;;;;;;;37.42;23.88;;;10.60;37.60;;;;;;4955664;28;20034;-75
2022/03/20 00:14:52;;;;;;;38.45;24.45;;;10.60;37.60;;;;;;4955697;29;20031;-75
2022/03/20 00:17:20;;;;;;;37.88;22.75;;;10.60;37.60;;;;;;4955914;28;20425;-74
2022/03/20 00:19:46;;;;;;;43.30;23.88;;;10.60;37.20;;;;;;4954223;29;20374;-75
2022/03/20 00:22:13;;;;;;;40.38;23.52;;;10.60;37.20;;;;;;4955365;29;20024;-75
2022/03/20 00:24:42;;;;;;;37.88;22.50;;;10.60;37.10;;;;;;4955563;28;20023;-75
2022/03/20 00:27:11;;;;;;;34.63;21.38;;;10.60;37.10;;;;;;4955518;28;20023;-75
2022/03/20 00:29:36;;;;;;;37.15;22.50;;;10.60;36.90;;;;;;4955597;28;20027;-75
2022/03/20 00:32:07;;;;;;;32.60;21.08;;;10.60;36.80;;;;;;4970248;28;20027;-75
2022/03/20 00:34:33;;;;;;;38.72;23.27;;;10.60;36.70;;;;;;4955033;28;20118;-75
2022/03/20 00:36:58;;;;;;;43.53;21.75;;;10.60;36.70;;;;;;4955346;28;20110;-75
2022/03/20 00:39:24;;;;;;;34.17;20.50;;;10.60;36.40;;;;;;4955219;28;20031;-75
2022/03/20 00:41:50;;;;;;;33.72;20.85;;;10.60;36.20;;;;;;4955265;28;20035;-75
2022/03/20 00:44:16;;;;;;;30.85;19.00;;;10.50;36.10;;;;;;4955175;28;20019;-75
2022/03/20 00:46:42;;;;;;;34.80;21.25;;;10.50;36.00;;;;;;4955155;28;20059;-75
2022/03/20 00:49:07;;;;;;;31.13;18.15;;;10.50;35.80;;;;;;4955152;28;20023;-75
2022/03/20 00:51:33;;;;;;;32.83;20.30;;;10.50;35.80;;;;;;4955080;28;20027;-75
2022/03/20 00:53:59;;;;;;;32.47;20.20;;;10.50;35.60;;;;;;4953849;29;20039;-75
2022/03/20 00:56:26;;;;;;;31.75;20.38;;;10.50;35.50;;;;;;4955236;28;20027;-75
2022/03/20 00:58:52;;;;;;;32.95;20.38;;;10.40;35.40;;;;;;4954848;28;20126;-75
2022/03/20 01:01:18;;;;;;;33.88;18.95;;;10.50;35.30;;;;;;4955062;28;20103;-75
2022/03/20 01:03:44;;;;;;;33.40;19.38;;;10.40;35.20;;;;;;4953878;28;20078;-75
2022/03/20 01:06:11;;;;;;;29.80;19.40;;;10.40;35.10;;;;;;4954988;28;20032;-75
2022/03/20 01:08:37;;;;;;;33.65;20.40;;;10.40;35.00;;;;;;4954959;29;20109;-75
2022/03/20 01:11:07;;;;;;;32.45;19.23;;;10.40;34.90;;;;;;4953691;28;20393;-75
2022/03/20 01:13:35;;;;;;;29.55;18.40;;;10.40;34.90;;;;;;4969744;28;20461;-75
2022/03/20 01:16:01;;;;;;;29.80;18.48;;;10.40;34.90;;;;;;4957539;28;20405;-75
2022/03/20 01:18:27;;;;;;;35.15;20.52;;;10.40;34.90;;;;;;4958824;28;20031;-75
2022/03/20 01:20:53;;;;;;;27.13;17.30;;;10.40;34.80;;;;;;4958824;28;20034;-75
2022/03/20 01:23:23;;;;;;;31.63;18.05;;;10.40;34.80;;;;;;4973758;28;20146;-75
2022/03/20 01:25:50;;;;;;;32.55;19.65;;;10.40;34.80;;;;;;4957539;28;20487;-75
2022/03/20 01:28:18;;;;;;;27.92;17.90;;;10.30;34.80;;;;;;4958800;28;20110;-75
2022/03/20 01:30:44;;;;;;;29.88;18.58;;;10.30;34.90;;;;;;4958698;28;20026;-74
2022/03/20 01:33:10;;;;;;;27.25;16.52;;;10.30;34.80;;;;;;4958050;28;20028;-75
2022/03/20 01:35:36;;;;;;;27.88;17.08;;;10.30;34.80;;;;;;4958430;29;20031;-75
2022/03/20 01:38:05;;;;;;;34.47;20.05;;;10.30;34.70;;;;;;4958500;28;20032;-75
2022/03/20 01:40:31;;;;;;;28.98;17.70;;;10.20;34.70;;;;;;4958487;28;20034;-75
2022/03/20 01:42:57;;;;;;;29.25;18.17;;;10.20;34.70;;;;;;4958458;28;20030;-75
2022/03/20 01:45:24;;;;;;;30.52;17.80;;;10.20;34.60;;;;;;4958364;29;20473;-75
2022/03/20 01:47:52;;;;;;;27.55;17.75;;;10.20;34.70;;;;;;4958351;28;20417;-75
2022/03/20 01:50:21;;;;;;;37.83;19.20;;;10.20;34.60;;;;;;4958279;29;20102;-75
2022/03/20 01:52:48;;;;;;;30.05;18.42;;;10.20;34.60;;;;;;4958243;28;20467;-75
2022/03/20 01:55:15;;;;;;;29.63;19.08;;;10.10;34.70;;;;;;4958229;28;20049;-75
2022/03/20 01:57:44;;;;;;;26.48;16.63;;;10.20;34.60;;;;;;4957992;28;20051;-75
2022/03/20 02:00:12;;;;;;;26.55;16.90;;;10.10;34.50;;;;;;4958148;28;20043;-75
2022/03/20 02:02:38;;;;;;;27.42;17.15;;;10.10;34.50;;;;;;4958004;28;20019;-75
2022/03/20 02:05:06;;;;;;;27.92;17.77;;;10.10;34.50;;;;;;4956825;28;20026;-75
2022/03/20 02:07:37;;;;;;;29.30;17.65;;;10.10;34.40;;;;;;4956609;29;20027;-75
2022/03/20 02:10:05;;;;;;;31.50;17.85;;;10.10;34.20;;;;;;4972685;28;20028;-75
2022/03/20 02:12:31;;;;;;;26.25;17.05;;;10.10;34.20;;;;;;4972639;28;20055;-75
2022/03/20 02:14:58;;;;;;;27.58;16.27;;;10.10;34.30;;;;;;4957744;29;20114;-75
2022/03/20 02:17:30;;;;;;;28.65;17.50;;;10.00;34.00;;;;;;4957643;28;20098;-75
2022/03/20 02:20:03;;;;;;;29.25;16.88;;;10.00;34.10;;;;;;4961599;28;20051;-75
2022/03/20 02:22:30;;;;;;;26.67;16.63;;;10.00;34.00;;;;;;4957670;28;20374;-74
2022/03/20 02:24:56;;;;;;;29.25;16.13;;;10.00;34.00;;;;;;4957620;28;20088;-75
2022/03/20 02:27:25;;;;;;;26.27;15.77;;;10.00;33.90;;;;;;4956538;28;20031;-75
2022/03/20 02:29:58;;;;;;;27.60;16.67;;;10.00;33.80;;;;;;4956251;28;20077;-74
2022/03/20 02:32:29;;;;;;;29.15;16.30;;;10.00;33.80;;;;;;4972267;28;20036;-75
2022/03/20 02:35:01;;;;;;;29.02;16.25;;;10.00;33.70;;;;;;4956758;28;20043;-75
2022/03/20 02:37:28;;;;;;;26.02;15.98;;;10.00;33.60;;;;;;4957412;29;20496;-75
2022/03/20 02:39:56;;;;;;;32.45;16.67;;;9.90;33.60;;;;;;4957280;28;20034;-75
2022/03/20 02:42:23;;;;;;;25.00;15.25;;;9.90;33.40;;;;;;4956014;29;20058;-75
2022/03/20 02:45:00;;;;;;;29.52;17.48;;;9.90;33.50;;;;;;4957302;29;20082;-75
2022/03/20 02:47:32;;;;;;;25.02;15.13;;;9.90;33.40;;;;;;4957330;28;20389;-75
2022/03/20 02:50:11;;;;;;;23.45;14.93;;;9.90;33.40;;;;;;4957257;28;20027;-75
2022/03/20 02:52:52;;;;;;;28.00;15.73;;;9.90;33.50;;;;;;4955772;29;20039;-75
2022/03/20 02:55:23;;;;;;;29.20;15.88;;;9.90;33.40;;;;;;4955932;28;20035;-75
2022/03/20 02:57:50;;;;;;;24.63;14.77;;;9.80;33.30;;;;;;4956850;28;20512;-75
2022/03/20 03:00:21;;;;;;;23.65;14.48;;;9.80;33.40;;;;;;4955745;29;20038;-75
2022/03/20 03:02:48;;;;;;;25.73;15.52;;;9.80;33.30;;;;;;4955593;28;20032;-74
2022/03/20 03:05:16;;;;;;;25.52;14.70;;;9.80;33.30;;;;;;4956554;29;20482;-75
2022/03/20 03:10:56;;;;;;;25.52;15.02;;;9.80;33.40;;;;;;4955879;28;20489;-75
2022/03/20 03:13:28;;;;;;;22.70;14.40;;;9.70;33.30;;;;;;4971752;28;20393;-75
2022/03/20 03:16:01;;;;;;;25.92;14.65;;;9.70;33.20;;;;;;4956750;28;20023;-75
2022/03/20 03:18:27;;;;;;;21.85;14.30;;;9.70;33.20;;;;;;4956554;28;20493;-75
2022/03/20 03:20:53;;;;;;;24.67;14.80;;;9.70;33.20;;;;;;4956682;28;20111;-75
2022/03/20 03:23:26;;;;;;;22.83;14.45;;;9.70;33.20;;;;;;4971539;28;20050;-75
2022/03/20 03:25:53;;;;;;;27.48;14.80;;;9.60;33.20;;;;;;4955279;28;20159;-75
2022/03/20 03:28:19;;;;;;;21.83;13.50;;;9.60;33.20;;;;;;4956488;28;20082;-75
2022/03/20 03:30:47;;;;;;;23.30;14.40;;;9.60;33.20;;;;;;4956469;28;20031;-75
2022/03/20 03:33:16;;;;;;;25.30;15.05;;;9.60;33.20;;;;;;4956011;28;20392;-75
2022/03/20 03:35:43;;;;;;;28.05;15.02;;;9.60;33.10;;;;;;4955112;28;20027;-75
2022/03/20 03:38:16;;;;;;;25.48;14.98;;;9.60;33.10;;;;;;4956021;28;20029;-75
2022/03/20 03:40:44;;;;;;;25.63;14.75;;;9.60;33.10;;;;;;4956367;28;20027;-75
2022/03/20 03:43:11;;;;;;;23.63;14.63;;;9.60;33.60;;;;;;4956182;29;20029;-75
2022/03/20 03:45:40;;;;;;;24.48;14.25;;;9.60;33.10;;;;;;4956189;28;20024;-75
2022/03/20 03:48:07;;;;;;;23.77;13.27;;;9.60;33.10;;;;;;4956128;28;20381;-75
2022/03/20 03:50:34;;;;;;;24.42;14.55;;;9.60;33.10;;;;;;4956109;29;20027;-74
2022/03/20 03:52:59;;;;;;;24.20;14.85;;;9.60;33.10;;;;;;4956037;28;20105;-75
2022/03/20 03:55:26;;;;;;;23.52;14.23;;;9.60;33.10;;;;;;4954677;28;20027;-74
2022/03/20 03:57:52;;;;;;;24.73;13.68;;;9.60;33.20;;;;;;4954555;29;20070;-75
2022/03/20 04:00:19;;;;;;;20.92;13.68;;;9.50;33.20;;;;;;4955977;28;20038;-75
2022/03/20 04:02:46;;;;;;;26.98;14.68;;;9.50;33.20;;;;;;4955631;28;20050;-75
2022/03/20 04:05:14;;;;;;;26.48;14.23;;;9.50;33.10;;;;;;4955751;28;20035;-75
2022/03/20 04:07:40;;;;;;;22.27;13.93;;;9.50;33.30;;;;;;4955746;28;20027;-75
2022/03/20 04:10:06;;;;;;;22.90;14.73;;;9.50;33.30;;;;;;4955694;28;20096;-75
2022/03/20 04:12:36;;;;;;;28.60;15.00;;;9.50;33.30;;;;;;4955677;28;20059;-75
2022/03/20 04:15:05;;;;;;;29.88;14.73;;;9.50;33.30;;;;;;4969860;28;20027;-74
2022/03/20 04:17:32;;;;;;;22.27;13.73;;;9.40;33.20;;;;;;4963852;28;20075;-75
2022/03/20 04:19:58;;;;;;;24.92;14.93;;;9.40;33.60;;;;;;4949864;28;20154;-75
2022/03/20 04:22:25;;;;;;;24.02;14.52;;;9.40;33.60;;;;;;4946158;29;20031;-75
2022/03/20 04:24:52;;;;;;;22.67;13.60;;;9.40;33.60;;;;;;4956917;28;20027;-75
2022/03/20 04:27:18;;;;;;;22.58;13.80;;;9.50;33.50;;;;;;4973899;28;20031;-75
2022/03/20 04:29:44;;;;;;;23.40;13.90;;;9.40;33.40;;;;;;4962533;28;20035;-74
2022/03/20 04:32:13;;;;;;;24.00;13.52;;;9.40;33.40;;;;;;4974033;28;20028;-75
2022/03/20 04:34:41;;;;;;;24.73;13.90;;;9.40;33.40;;;;;;4958350;28;20485;-75
2022/03/20 04:37:08;;;;;;;19.85;13.40;;;9.40;33.50;;;;;;4954192;28;20425;-75
2022/03/20 04:39:34;;;;;;;23.00;13.55;;;9.40;33.50;;;;;;4954893;28;20078;-74
2022/03/20 04:42:01;;;;;;;21.58;13.93;;;9.40;33.50;;;;;;4954005;28;20067;-75
2022/03/20 04:44:27;;;;;;;23.40;14.27;;;9.40;33.50;;;;;;4955208;29;20030;-75
2022/03/20 04:46:53;;;;;;;22.83;13.63;;;9.30;33.50;;;;;;4970041;28;20119;-73
2022/03/20 05:00:21;;;;;;;23.83;13.88;;;9.30;33.50;;;;;;4952360;28;20449;-75
2022/03/20 05:02:48;;;;;;;20.50;13.60;;;9.20;33.60;;;;;;4953501;28;20118;-75
2022/03/20 05:05:18;;;;;;;23.40;13.38;;;9.30;33.80;;;;;;4954037;29;20030;-75
2022/03/20 05:07:44;;;;;;;23.40;14.30;;;9.20;33.90;;;;;;4969759;28;20374;-74
2022/03/20 05:15:39;;;;;;;26.50;14.05;;;9.20;33.80;;;;;;4955075;29;20008;-74
2022/03/20 05:18:09;;;;;;;25.45;14.15;;;9.20;34.10;;;;;;4954816;28;20481;-75
2022/03/20 05:20:35;;;;;;;22.83;13.70;;;9.20;33.80;;;;;;4954842;28;20031;-75
2022/03/20 05:23:01;;;;;;;23.55;14.45;;;9.20;33.80;;;;;;4954831;28;20032;-76
2022/03/20 05:25:30;;;;;;;21.15;13.45;;;9.20;33.80;;;;;;4953556;28;20078;-75
2022/03/20 05:27:57;;;;;;;24.85;14.88;;;9.20;33.80;;;;;;4954795;28;20030;-75
2022/03/20 05:30:23;;;;;;;24.88;14.63;;;9.20;33.80;;;;;;4954812;28;20019;-75
2022/03/20 05:32:50;;;;;;;22.77;13.50;;;9.20;33.80;;;;;;4954291;28;20023;-75
2022/03/20 05:35:16;;;;;;;19.38;12.77;;;9.20;33.80;;;;;;4954864;29;20020;-75
2022/03/20 05:37:43;;;;;;;24.50;14.65;;;9.20;33.80;;;;;;4954642;29;20098;-75
2022/03/20 05:40:10;;;;;;;27.98;14.05;;;9.20;33.70;;;;;;4954598;28;20034;-74
2022/03/20 05:42:36;;;;;;;25.70;14.90;;;9.20;33.70;;;;;;4954606;28;20034;-75
2022/03/20 05:45:06;;;;;;;20.73;12.95;;;9.20;33.60;;;;;;4954677;29;20432;-74
2022/03/20 05:47:32;;;;;;;24.77;14.60;;;9.30;33.80;;;;;;4953239;29;20040;-75
2022/03/20 05:50:02;;;;;;;22.45;13.38;;;9.30;33.70;;;;;;4954647;28;20027;-75
2022/03/20 05:52:31;;;;;;;22.45;13.32;;;9.30;33.60;;;;;;4954515;28;20393;-75
2022/03/20 05:54:57;;;;;;;28.77;14.27;;;9.30;33.60;;;;;;4954518;28;20145;-75
2022/03/20 06:00:16;;;;;;;23.67;14.90;;;9.40;33.50;;;;;;4954558;29;20397;-75
2022/03/20 06:02:43;;;;;;;25.17;13.25;;;9.40;33.60;;;;;;4958001;28;20027;-75
2022/03/20 06:05:09;;;;;;;20.80;12.75;;;9.50;33.60;;;;;;4956730;28;20110;-75
2022/03/20 06:07:46;;;;;;;22.50;13.50;;;9.50;33.60;;;;;;4958081;28;20385;-75
2022/03/20 06:10:14;;;;;;;22.77;13.18;;;9.50;33.40;;;;;;4958037;28;20070;-75
2022/03/20 06:12:40;;;;;;;28.00;13.38;;;9.60;33.10;;;;;;4957811;28;20034;-75
2022/03/20 06:15:09;;;;;;;20.58;13.23;;;9.60;33.10;;;;;;4957870;28;20393;-75
2022/03/20 06:17:45;;;;;;;23.50;13.35;;;9.70;33.20;;;;;;4956635;29;20489;-75
2022/03/20 06:20:13;;;;;;;21.80;13.48;;;9.70;33.10;;;;;;4956544;28;20473;-75
2022/03/20 06:22:38;;;;;;;22.73;13.95;;;9.70;33.00;;;;;;4957778;28;20385;-75
2022/03/20 06:25:08;;;;;;;22.05;12.23;;;9.80;32.80;;;;;;4957737;28;20030;-75
2022/03/20 06:27:51;;;;;;;22.30;13.27;;;9.80;32.90;;;;;;4957738;28;20449;-75
2022/03/20 06:30:19;;;;;;;21.40;12.00;;;9.90;33.30;;;;;;4957706;28;20035;-74
2022/03/20 06:32:46;;;;;;;26.30;12.77;;;10.00;33.00;;;;;;4956256;28;20488;-75
2022/03/20 06:35:12;;;;;;;23.95;13.63;;;10.00;32.70;;;;;;4957124;28;20102;-75
2022/03/20 06:37:43;;;;;;;26.15;13.10;;;10.10;32.50;;;;;;4957526;28;20035;-75
2022/03/20 06:40:10;;;;;;;21.23;12.80;;;10.10;32.50;;;;;;4957529;28;20086;-75
2022/03/20 06:42:37;;;;;;;20.88;12.88;;;10.20;32.50;;;;;;4972253;28;20144;-74
2022/03/20 06:45:11;;;;;;;21.52;12.73;;;10.20;32.40;;;;;;4957422;28;20023;-75
2022/03/20 06:47:38;;;;;;;17.75;11.70;;;10.30;32.10;;;;;;4957378;29;20505;-75
2022/03/20 06:50:06;;;;;;;22.35;12.88;;;10.30;32.10;;;;;;4957318;29;20075;-74
2022/03/20 06:52:32;;;;;;;19.75;12.00;;;10.40;31.90;;;;;;4972123;28;20030;-75
2022/03/20 06:54:59;;;;;;;18.58;11.77;;;10.40;31.80;;;;;;4957264;28;20517;-75
2022/03/20 06:57:26;;;;;;;21.52;13.60;;;10.50;31.70;;;;;;4956960;28;20023;-75
2022/03/20 06:59:53;;;;;;;21.40;12.73;;;10.50;31.70;;;;;;4957308;28;20030;-75
2022/03/20 07:02:19;;;;;;;19.13;11.88;;;10.60;31.70;;;;;;4957121;28;20493;-75
2022/03/20 07:04:47;;;;;;;19.38;12.13;;;10.70;31.80;;;;;;4956440;28;20023;-75
2022/03/20 07:07:16;;;;;;;17.85;11.02;;;10.70;31.60;;;;;;4956725;28;20026;-75
2022/03/20 07:09:42;;;;;;;16.88;11.25;;;10.80;31.60;;;;;;4956957;28;20393;-75
2022/03/20 07:12:10;;;;;;;19.65;11.82;;;10.90;31.70;;;;;;4956600;28;20027;-74
2022/03/20 07:14:37;;;;;;;18.88;12.35;;;10.90;31.40;;;;;;4956627;28;20025;-74
2022/03/20 07:17:09;;;;;;;17.10;11.13;;;11.00;31.60;;;;;;4955538;29;20434;-76
2022/03/20 07:19:39;;;;;;;19.23;12.40;;;11.00;30.90;;;;;;4956736;28;20386;-75
2022/03/20 07:22:06;;;;;;;20.40;12.85;;;11.00;30.80;;;;;;4956791;28;20032;-75
2022/03/20 07:24:36;;;;;;;22.42;11.38;;;11.10;30.70;;;;;;4956679;28;20016;-75
2022/03/20 07:29:48;;;;;;;19.38;12.25;;;11.20;30.50;;;;;;4956850;29;20446;-75
2022/03/20 07:32:14;;;;;;;16.45;11.15;;;11.30;30.50;;;;;;4956400;28;20110;-75
2022/03/20 07:34:40;;;;;;;21.70;12.05;;;11.30;30.30;;;;;;4956046;28;20426;-75
2022/03/20 07:37:06;;;;;;;20.42;12.32;;;11.40;30.00;;;;;;4956462;28;20082;-75
2022/03/20 07:39:33;;;;;;;18.60;11.25;;;11.50;30.00;;;;;;4971172;28;20027;-75
2022/03/20 07:41:59;;;;;;;18.30;11.32;;;11.50;30.10;;;;;;4956321;28;20023;-75
2022/03/20 07:44:26;;;;;;;22.25;11.98;;;11.60;30.00;;;;;;4956299;28;20078;-75
2022/03/20 07:46:55;;;;;;;18.65;11.60;;;11.60;29.90;;;;;;4956261;28;20060;-75
2022/03/20 07:49:21;;;;;;;20.20;11.38;;;11.60;29.80;;;;;;4956414;28;20030;-75
2022/03/20 07:51:48;;;;;;;18.38;10.98;;;11.70;29.80;;;;;;4956180;28;20106;-75
2022/03/20 07:54:14;;;;;;;24.20;12.07;;;11.80;29.50;;;;;;4954883;28;20032;-75
2022/03/20 07:56:41;;;;;;;18.63;12.27;;;11.80;29.40;;;;;;4970850;28;20039;-75
2022/03/20 07:59:08;;;;;;;22.42;12.70;;;11.80;29.30;;;;;;4955741;28;20047;-75
2022/03/20 08:01:34;;;;;;;20.23;11.07;;;11.90;29.10;;;;;;4955966;28;20095;-75
2022/03/20 08:04:00;;;;;;;18.52;11.50;;;11.90;29.10;;;;;;4955389;28;20122;-75
2022/03/20 08:06:27;;;;;;;20.30;12.07;;;12.00;29.30;;;;;;4954358;28;20024;-75
2022/03/20 08:08:53;;;;;;;20.52;12.63;;;12.00;29.20;;;;;;4955864;28;20481;-75
2022/03/20 08:11:19;;;;;;;17.45;11.05;;;12.10;28.90;;;;;;4955699;28;20070;-75
2022/03/20 08:13:45;;;;;;;20.02;10.52;;;12.20;29.10;;;;;;4955769;28;20023;-75
2022/03/20 08:16:15;;;;;;;20.08;11.77;;;12.20;29.10;;;;;;4955677;28;20050;-75
2022/03/20 08:18:43;;;;;;;19.98;11.45;;;12.20;28.80;;;;;;4970429;28;20098;-75
2022/03/20 08:21:12;;;;;;;17.85;11.45;;;12.30;28.90;;;;;;4954355;28;20035;-75
2022/03/20 08:23:39;;;;;;;22.63;11.82;;;12.40;28.90;;;;;;4955607;28;20023;-75
2022/03/20 08:26:08;;;;;;;17.13;12.05;;;12.40;28.30;;;;;;4954856;28;20023;-75
2022/03/20 08:28:44;;;;;;;18.05;10.93;;;12.40;28.20;;;;;;4955523;28;20028;-73
2022/03/20 08:31:10;;;;;;;20.25;11.48;;;12.50;28.40;;;;;;4955455;28;20034;-75
2022/03/20 08:33:36;;;;;;;25.08;12.13;;;12.50;28.40;;;;;;4954721;28;20027;-75
2022/03/20 08:36:04;;;;;;;18.60;11.80;;;12.50;28.00;;;;;;4954173;28;20031;-75
2022/03/20 08:38:30;;;;;;;16.27;10.73;;;12.60;27.80;;;;;;4955307;28;20110;-75
2022/03/20 08:40:56;;;;;;;20.80;12.32;;;12.60;27.90;;;;;;4955317;28;20173;-75
2022/03/20 08:43:22;;;;;;;17.63;11.57;;;12.70;27.90;;;;;;4953717;29;20529;-75
2022/03/20 08:45:49;;;;;;;19.73;12.45;;;12.80;28.10;;;;;;4955257;29;20023;-75
2022/03/20 08:48:15;;;;;;;18.77;10.88;;;12.80;27.60;;;;;;4953964;28;20082;-76
2022/03/20 08:50:44;;;;;;;16.88;10.60;;;12.80;27.60;;;;;;4955160;29;20445;-75
2022/03/20 08:53:10;;;;;;;15.73;9.80;;;12.90;27.40;;;;;;4955208;28;20100;-75
2022/03/20 08:55:36;;;;;;;15.98;10.88;;;12.90;27.40;;;;;;4955194;29;20030;-75
2022/03/20 08:58:04;;;;;;;16.80;10.90;;;12.90;27.10;;;;;;4954868;28;20051;-75
2022/03/20 09:00:32;;;;;;;18.95;11.50;;;13.00;27.30;;;;;;4955081;28;20038;-75
2022/03/20 09:02:57;;;;;;;19.70;10.93;;;13.00;27.00;;;;;;4954593;29;20023;-75
2022/03/20 09:05:23;;;;;;;23.38;11.77;;;13.10;26.90;;;;;;4955065;28;20429;-75
2022/03/20 09:07:50;;;;;;;17.77;10.88;;;13.10;26.50;;;;;;4954864;28;20055;-74
2022/03/20 09:10:17;;;;;;;24.65;13.02;;;13.10;26.70;;;;;;4953683;29;20090;-73
2022/03/20 09:12:43;;;;;;;18.38;11.52;;;13.20;26.60;;;;;;4954898;28;20035;-74
2022/03/20 09:15:12;;;;;;;17.75;10.52;;;13.20;26.50;;;;;;4954952;28;20019;-74
2022/03/20 09:20:23;;;;;;;17.27;10.43;;;13.30;26.50;;;;;;4954790;29;20472;-73
2022/03/20 09:22:49;;;;;;;20.33;10.90;;;13.30;26.80;;;;;;4954793;28;20032;-74
2022/03/20 09:25:15;;;;;;;20.75;11.18;;;13.40;26.30;;;;;;4953543;29;20392;-74
2022/03/20 09:27:41;;;;;;;16.58;10.50;;;13.40;26.40;;;;;;4954689;28;20028;-74
2022/03/20 09:30:07;;;;;;;16.10;10.80;;;13.50;26.60;;;;;;4954748;28;20392;-74
2022/03/20 09:32:33;;;;;;;18.63;10.75;;;13.50;26.30;;;;;;4954175;28;20034;-74
2022/03/20 09:34:59;;;;;;;19.13;10.45;;;13.50;26.20;;;;;;4954298;28;20066;-74
2022/03/20 09:37:24;;;;;;;16.63;10.15;;;13.60;26.30;;;;;;4957696;28;20102;-74
2022/03/20 09:39:50;;;;;;;14.63;9.90;;;13.60;26.00;;;;;;4958632;28;20540;-75
2022/03/20 09:42:21;;;;;;;20.83;11.82;;;13.70;26.00;;;;;;4958583;28;20023;-74
2022/03/20 09:44:50;;;;;;;16.95;10.50;;;13.70;25.90;;;;;;4958548;28;20028;-74
2022/03/20 09:47:19;;;;;;;19.30;10.57;;;13.80;26.00;;;;;;4958437;28;20041;-74
2022/03/20 09:49:46;;;;;;;16.10;10.40;;;13.90;26.00;;;;;;4958397;28;20033;-74
2022/03/20 09:52:12;;;;;;;14.85;10.20;;;13.90;25.90;;;;;;4958306;28;20374;-74
2022/03/20 09:54:38;;;;;;;19.33;10.93;;;14.00;25.80;;;;;;4973113;28;20057;-74
2022/03/20 09:57:06;;;;;;;28.73;10.88;;;14.00;25.80;;;;;;4958188;28;20034;-74
2022/03/20 09:59:33;;;;;;;18.17;9.80;;;14.10;25.60;;;;;;4957945;28;20035;-74
2022/03/20 10:02:06;;;;;;;17.00;9.88;;;14.10;25.50;;;;;;4958124;28;20540;-74
2022/03/20 10:04:34;;;;;;;16.33;10.00;;;14.10;25.30;;;;;;4972571;28;20511;-74
2022/03/20 10:07:00;;;;;;;14.02;8.77;;;14.20;25.40;;;;;;4956252;28;20792;-74
2022/03/20 10:09:27;;;;;;;15.85;9.63;;;14.30;25.30;;;;;;4958060;28;20031;-74
2022/03/20 10:11:57;;;;;;;17.33;9.68;;;14.30;25.40;;;;;;4957976;29;20031;-74
2022/03/20 10:14:31;;;;;;;15.68;9.85;;;14.40;25.20;;;;;;4972933;28;20082;-74
2022/03/20 10:17:17;;;;;;;16.15;9.60;;;14.40;25.10;;;;;;4972738;28;20031;-74
2022/03/20 10:19:43;;;;;;;16.42;9.65;;;14.50;24.90;;;;;;4956528;29;20034;-74
2022/03/20 10:22:11;;;;;;;18.58;10.57;;;14.50;24.60;;;;;;4959114;28;20031;-74
2022/03/20 10:24:46;;;;;;;14.00;8.60;;;14.50;24.50;;;;;;4977012;28;20031;-74
2022/03/20 10:27:14;;;;;;;16.15;10.30;;;14.60;24.90;;;;;;4975758;28;20078;-74
2022/03/20 10:29:52;;;;;;;16.27;10.48;;;14.70;24.70;;;;;;4975689;28;20035;-74
2022/03/20 10:32:18;;;;;;;16.90;10.35;;;14.70;24.20;;;;;;4976873;28;20531;-74
2022/03/20 10:35:01;;;;;;;17.63;9.18;;;14.70;24.20;;;;;;4958429;28;20035;-74
2022/03/20 10:37:47;;;;;;;18.80;9.30;;;14.70;24.30;;;;;;4957484;28;20362;-74
2022/03/20 10:40:16;;;;;;;14.15;9.60;;;14.80;24.70;;;;;;4972141;28;20127;-74
2022/03/20 10:43:03;;;;;;;16.50;9.73;;;14.80;24.30;;;;;;4957375;29;20019;-74
2022/03/20 10:45:29;;;;;;;13.93;9.27;;;14.90;24.50;;;;;;4955967;29;20030;-74
2022/03/20 10:48:01;;;;;;;15.77;8.90;;;14.90;24.60;;;;;;4956459;28;20027;-74
2022/03/20 10:50:27;;;;;;;13.70;9.32;;;15.00;24.30;;;;;;4957242;29;20019;-74
2022/03/20 10:53:13;;;;;;;15.27;9.15;;;15.00;24.30;;;;;;4972031;28;20489;-74
2022/03/20 10:55:39;;;;;;;18.08;9.05;;;15.00;24.10;;;;;;4956975;28;20043;-74
2022/03/20 10:58:18;;;;;;;14.32;8.52;;;15.10;23.80;;;;;;4955695;28;20521;-74
2022/03/20 11:00:46;;;;;;;13.52;8.88;;;15.10;23.70;;;;;;4957129;28;20082;-74
2022/03/20 11:03:15;;;;;;;14.93;8.93;;;15.20;23.70;;;;;;4956706;28;20024;-74
2022/03/20 11:05:41;;;;;;;13.77;9.00;;;15.20;23.90;;;;;;4971683;28;20054;-74
2022/03/20 11:08:06;;;;;;;17.02;8.60;;;15.30;23.70;;;;;;4956804;28;20019;-74
2022/03/20 11:10:34;;;;;;;14.10;9.05;;;15.30;23.60;;;;;;4956903;28;20027;-74
2022/03/20 11:13:02;;;;;;;16.88;8.75;;;15.30;23.60;;;;;;4956831;28;20027;-74
2022/03/20 11:15:29;;;;;;;12.35;8.10;;;15.40;23.10;;;;;;4955556;29;20034;-74
2022/03/20 11:17:57;;;;;;;12.30;8.65;;;15.40;23.20;;;;;;4955494;28;20031;-74
2022/03/20 11:20:25;;;;;;;13.20;8.52;;;15.50;23.20;;;;;;4955434;28;20039;-74
2022/03/20 11:22:53;;;;;;;13.02;8.60;;;15.50;23.10;;;;;;4956656;28;20030;-74
2022/03/20 11:25:24;;;;;;;13.77;8.50;;;15.60;23.00;;;;;;4956597;28;20023;-74
2022/03/20 11:27:59;;;;;;;14.68;8.75;;;15.60;22.30;;;;;;4956612;28;20034;-74
2022/03/20 11:30:31;;;;;;;14.00;8.38;;;15.60;22.40;;;;;;4955276;29;20050;-74
2022/03/20 11:33:00;;;;;;;13.82;8.77;;;15.70;22.80;;;;;;4955948;29;20034;-74
2022/03/20 11:35:30;;;;;;;14.65;8.77;;;15.80;22.40;;;;;;4955133;29;20375;-74
2022/03/20 11:38:12;;;;;;;12.80;8.55;;;15.90;22.80;;;;;;4956368;28;20027;-74
2022/03/20 11:40:41;;;;;;;12.88;8.35;;;15.90;22.40;;;;;;4956327;28;20030;-74
2022/03/20 11:43:22;;;;;;;14.48;8.85;;;16.00;22.50;;;;;;4956412;28;20023;-74
2022/03/20 11:46:34;;;;;;;15.13;8.18;;;16.10;22.50;;;;;;4956296;29;20030;-74
2022/03/20 11:49:17;;;;;;;14.25;8.80;;;16.20;22.20;;;;;;4956222;29;20433;-74
2022/03/20 11:51:58;;;;;;;13.05;8.73;;;16.20;21.90;;;;;;4970962;28;20035;-74
2022/03/20 11:54:31;;;;;;;15.15;9.25;;;16.30;21.60;;;;;;4954848;28;20023;-74
2022/03/20 11:57:00;;;;;;;14.32;8.63;;;16.40;21.30;;;;;;4970847;28;20397;-74
2022/03/20 11:59:44;;;;;;;14.15;9.02;;;16.40;21.20;;;;;;4955690;28;20047;-74
2022/03/20 12:02:14;;;;;;;14.98;9.18;;;16.50;21.40;;;;;;4955975;28;20030;-74
2022/03/20 12:05:03;;;;;;;13.30;7.75;;;16.60;21.20;;;;;;4954339;29;20074;-74
2022/03/20 12:07:39;;;;;;;13.63;8.93;;;16.70;21.80;;;;;;4955761;29;20047;-74
2022/03/20 12:10:16;;;;;;;14.35;8.18;;;16.90;21.90;;;;;;4954886;28;20069;-74
2022/03/20 12:13:10;;;;;;;13.48;8.07;;;17.00;21.60;;;;;;4955823;28;20079;-74
2022/03/20 12:15:44;;;;;;;13.18;7.68;;;17.20;21.20;;;;;;4954440;29;20031;-74
2022/03/20 12:18:11;;;;;;;13.05;8.38;;;17.40;21.00;;;;;;4955610;28;20035;-74
2022/03/20 12:21:03;;;;;;;13.85;9.18;;;17.50;20.50;;;;;;4955691;28;20039;-74
2022/03/20 12:23:42;;;;;;;13.25;8.65;;;17.60;20.60;;;;;;4955065;29;20035;-75
2022/03/20 12:26:46;;;;;;;14.70;8.35;;;17.80;20.40;;;;;;4955553;29;20019;-75
2022/03/20 12:29:32;;;;;;;14.48;8.20;;;18.00;21.10;;;;;;4953359;29;20029;-74
2022/03/20 12:32:04;;;;;;;12.32;8.32;;;18.20;20.60;;;;;;4953203;29;20042;-74
2022/03/20 12:34:30;;;;;;;12.23;7.75;;;18.30;19.60;;;;;;4952940;29;20035;-74
2022/03/20 12:37:29;;;;;;;10.57;7.85;;;18.40;19.70;;;;;;4953222;28;20032;-74
2022/03/20 12:39:56;;;;;;;18.77;8.02;;;18.50;20.10;;;;;;4953008;29;20031;-74
2022/03/20 12:42:23;;;;;;;10.30;7.38;;;18.60;20.20;;;;;;4953160;28;20031;-74
2022/03/20 12:44:51;;;;;;;11.60;7.50;;;18.70;19.90;;;;;;4953108;28;20505;-74
2022/03/20 12:47:21;;;;;;;16.13;7.40;;;18.80;19.30;;;;;;4953089;28;20031;-74
2022/03/20 12:49:53;;;;;;;12.07;7.70;;;18.80;19.50;;;;;;4952991;29;20039;-74
2022/03/20 12:52:19;;;;;;;12.07;7.38;;;18.80;18.50;;;;;;4953091;29;20046;-74
2022/03/20 12:54:59;;;;;;;10.75;7.63;;;18.70;18.50;;;;;;4952899;29;20486;-74
2022/03/20 12:57:50;;;;;;;13.48;7.95;;;18.60;19.00;;;;;;4952579;29;20062;-74
2022/03/20 13:00:19;;;;;;;11.10;7.03;;;18.60;18.60;;;;;;4936846;29;20502;-74
2022/03/20 13:03:06;;;;;;;11.57;6.97;;;18.60;18.20;;;;;;4956348;28;20035;-74
2022/03/20 13:05:49;;;;;;;12.15;7.35;;;18.50;18.60;;;;;;4970033;28;20377;-74
2022/03/20 13:08:24;;;;;;;11.43;7.35;;;18.50;18.50;;;;;;4954917;28;20030;-74
2022/03/20 13:10:56;;;;;;;12.32;7.60;;;18.50;18.80;;;;;;4953824;28;20039;-74